Time;durP1;ratioP1;P1;durP2;ratioP2;P2;SDS_P1;SDS_P2;PMS_P1;PMS_P2;Temp;Humidity;BMP_temperature;BMP_pressure;BME280_temperature;BME280_humidity;BME280_pressure;Samples;Min_cycle;Max_cycle;Signal;HPM_P1;HPM_P2
2023/06/01 00:01:51;;;;;;;10.82;5.90;;;;;;;16.05;nan;-11702.38;5032443;28;20317;-69
2023/06/01 00:04:17;;;;;;;11.68;6.40;;;;;;;16.04;nan;-11379.59;5033292;28;20220;-69
2023/06/01 00:06:42;;;;;;;10.85;6.30;;;;;;;16.29;nan;-10412.66;5031703;28;20199;-69
2023/06/01 00:09:08;;;;;;;9.20;5.68;;;;;;;16.41;nan;-9121.06;5032984;28;20233;-69
2023/06/01 00:11:33;;;;;;;8.68;5.10;;;;;;;16.31;nan;-10089.84;5032860;28;20226;-70
2023/06/01 00:13:59;;;;;;;10.77;6.20;;;;;;;16.14;nan;-10734.72;5032728;28;20678;-71
2023/06/01 00:16:25;;;;;;;10.60;5.90;;;;;;;15.87;nan;-11055.81;5032756;28;20536;-70
2023/06/01 00:18:55;;;;;;;10.65;6.10;;;;;;;15.92;nan;-11701.41;5032804;28;20618;-69
2023/06/01 00:21:21;;;;;;;12.57;6.18;;;;;;;15.87;nan;-11378.44;5032624;28;20167;-69
2023/06/01 00:23:47;;;;;;;12.15;5.95;;;;;;;15.87;nan;-12023.66;5031009;28;20669;-68
2023/06/01 00:26:13;;;;;;;11.13;5.72;;;;;;;15.78;nan;-12990.25;5032796;28;20284;-69
2023/06/01 00:28:39;;;;;;;11.40;6.15;;;;;;;16.05;nan;-12347.69;5036828;28;20678;-69
2023/06/01 00:31:04;;;;;;;11.27;6.13;;;;;;;16.13;nan;-12348.34;5032989;28;20588;-68
2023/06/01 00:33:30;;;;;;;11.10;6.05;;;;;;;16.21;nan;-11057.97;5032805;28;20194;-69
2023/06/01 00:35:56;;;;;;;9.32;5.65;;;;;;;15.73;nan;-11377.50;5032625;28;20560;-70
2023/06/01 00:38:21;;;;;;;8.82;5.65;;;;;;;16.11;nan;-11057.34;5032844;28;20234;-70
2023/06/01 00:40:50;;;;;;;12.30;5.82;;;;;;;15.95;nan;-11379.00;5032192;28;20178;-70
2023/06/01 00:43:17;;;;;;;10.50;5.75;;;;;;;15.65;nan;-12666.69;5032669;28;20164;-71
2023/06/01 00:45:43;;;;;;;9.77;5.22;;;;;;;15.69;nan;-12344.66;5032575;28;20603;-69
2023/06/01 00:48:09;;;;;;;10.07;5.65;;;;;;;15.79;nan;-12345.50;5032036;28;20203;-70
2023/06/01 00:50:34;;;;;;;10.27;6.20;;;;;;;15.89;nan;-12346.38;5032213;28;20206;-68
2023/06/01 00:53:02;;;;;;;14.55;6.43;;;;;;;15.50;nan;-12665.34;5032402;28;20175;-70
2023/06/01 00:55:27;;;;;;;11.98;6.20;;;;;;;15.30;nan;-12985.69;5032248;28;20646;-69
2023/06/01 00:57:55;;;;;;;11.55;5.53;;;;;;;15.75;nan;-12667.63;5032251;28;20202;-69
2023/06/01 01:00:22;;;;;;;9.07;5.55;;;;;;;15.76;nan;-11700.25;5032210;28;20223;-70
2023/06/01 01:02:48;;;;;;;9.00;5.50;;;;;;;15.52;nan;-12020.84;5031959;28;20179;-70
2023/06/01 01:05:16;;;;;;;10.02;5.43;;;;;;;15.71;nan;-11054.75;5031827;28;20179;-69
2023/06/01 01:08:07;;;;;;;8.50;5.30;;;;;;;15.67;nan;-10731.94;5031652;28;20238;-69
2023/06/01 01:10:37;;;;;;;11.50;5.75;;;;;;;15.50;nan;-12020.66;5030758;28;20623;-69
2023/06/01 01:13:08;;;;;;;8.18;4.55;;;;;;;15.48;nan;-12020.56;5031505;28;20206;-70
2023/06/01 01:15:51;;;;;;;7.82;4.65;;;;;;;15.45;nan;-11375.56;5031681;28;20740;-69
2023/06/01 01:18:27;;;;;;;7.75;5.05;;;;;;;15.16;nan;-12017.97;5032161;28;20202;-70
2023/06/01 01:21:00;;;;;;;9.10;5.15;;;;;;;15.32;nan;-12341.47;5031923;28;20224;-68
2023/06/01 01:23:41;;;;;;;9.93;4.88;;;;;;;15.31;nan;-12663.59;5030135;28;20274;-69
2023/06/01 01:26:37;;;;;;;7.95;4.65;;;;;;;15.00;nan;-12660.88;5031507;28;20175;-68
2023/06/01 01:29:09;;;;;;;13.68;5.22;;;;;;;14.92;nan;-12982.06;5035984;28;20297;-70
2023/06/01 01:31:35;;;;;;;7.40;4.60;;;;;;;14.93;nan;-12982.22;5031707;28;20187;-69
2023/06/01 01:34:03;;;;;;;8.77;4.75;;;;;;;15.15;nan;-12984.28;5031089;28;20177;-71
2023/06/01 01:36:29;;;;;;;10.30;5.22;;;;;;;15.09;nan;-13305.75;5031021;28;20647;-68
2023/06/01 01:38:55;;;;;;;7.82;4.70;;;;;;;15.11;nan;-13305.94;5030028;28;20669;-69
2023/06/01 01:41:21;;;;;;;7.93;5.05;;;;;;;15.16;nan;-13306.47;5031399;28;20171;-69
2023/06/01 01:43:48;;;;;;;7.97;4.90;;;;;;;14.97;nan;-13948.44;5031211;28;20179;-67
2023/06/01 01:46:39;;;;;;;9.45;5.25;;;;;;;14.86;nan;-14590.75;5031183;28;20217;-69
2023/06/01 01:49:04;;;;;;;8.35;4.85;;;;;;;14.97;nan;-14592.16;5031051;28;20202;-70
2023/06/01 01:52:00;;;;;;;8.55;5.30;;;;;;;14.90;nan;-15234.84;5031403;28;20653;-69
2023/06/01 01:54:28;;;;;;;7.72;4.93;;;;;;;14.61;nan;-15874.06;5030074;28;20203;-69
2023/06/01 01:56:58;;;;;;;9.23;5.15;;;;;;;14.64;nan;-16195.94;5030063;28;20179;-69
2023/06/01 01:59:24;;;;;;;10.85;4.85;;;;;;;14.50;nan;-16836.72;5031478;28;20205;-68
2023/06/01 02:01:50;;;;;;;8.77;5.43;;;;;;;14.65;nan;-17160.53;5031874;28;20665;-69
2023/06/01 02:04:15;;;;;;;12.05;5.68;;;;;;;14.47;nan;-17478.88;5031422;28;20172;-68
2023/06/01 02:06:40;;;;;;;8.43;5.25;;;;;;;14.81;nan;-16841.66;5031372;28;20168;-69
2023/06/01 02:09:07;;;;;;;8.02;4.88;;;;;;;14.81;nan;-17163.19;5031079;28;20242;-68
2023/06/01 02:11:36;;;;;;;7.45;5.10;;;;;;;14.55;nan;-17801.63;5032115;28;20549;-70
2023/06/01 02:14:02;;;;;;;8.10;5.03;;;;;;;14.69;nan;-17803.91;5031732;28;20206;-69
2023/06/01 02:16:27;;;;;;;8.13;5.28;;;;;;;14.76;nan;-17805.16;5031579;28;20180;-68
2023/06/01 02:18:53;;;;;;;11.43;5.47;;;;;;;14.50;nan;-17800.66;5031413;28;20175;-69
2023/06/01 02:21:18;;;;;;;8.55;5.15;;;;;;;14.56;nan;-18123.09;5031086;28;20167;-69
2023/06/01 02:23:44;;;;;;;8.75;5.45;;;;;;;14.73;nan;-18447.44;5032970;28;20171;-68
2023/06/01 02:26:10;;;;;;;9.73;6.10;;;;;;;14.84;nan;-17806.63;5034990;28;20186;-68
2023/06/01 02:28:39;;;;;;;8.70;5.60;;;;;;;14.70;nan;-16518.34;5034948;28;20215;-70
2023/06/01 02:31:05;;;;;;;8.00;5.05;;;;;;;14.60;nan;-16838.31;5039093;28;20183;-70
2023/06/01 02:33:31;;;;;;;9.18;5.30;;;;;;;14.52;nan;-17158.41;5035003;28;20262;-70
2023/06/01 02:35:56;;;;;;;8.50;5.32;;;;;;;14.66;nan;-18124.81;5034825;28;20264;-70
2023/06/01 02:38:22;;;;;;;9.77;5.47;;;;;;;14.56;nan;-18123.00;5034838;28;20172;-71
2023/06/01 02:40:47;;;;;;;11.10;5.15;;;;;;;14.50;nan;-18443.16;5034330;28;20171;-69
2023/06/01 02:43:13;;;;;;;7.95;5.30;;;;;;;14.36;nan;-18761.66;5034968;28;20167;-68
2023/06/01 02:45:38;;;;;;;8.43;4.75;;;;;;;14.52;nan;-18764.72;5034727;28;20171;-72
2023/06/01 02:48:04;;;;;;;7.78;5.38;;;;;;;14.55;nan;-18765.38;5034796;28;20285;-71
2023/06/01 02:50:29;;;;;;;9.10;5.32;;;;;;;14.58;nan;-19087.06;5034739;28;20250;-69
2023/06/01 02:52:55;;;;;;;10.27;5.03;;;;;;;14.37;nan;-19082.94;5035013;28;20217;-70
2023/06/01 02:55:20;;;;;;;8.55;5.43;;;;;;;14.53;nan;-19086.09;5034277;28;20638;-70
2023/06/01 02:57:46;;;;;;;9.27;5.35;;;;;;;14.64;nan;-19088.16;5034909;28;20171;-69
2023/06/01 03:00:15;;;;;;;10.40;5.50;;;;;;;14.50;nan;-19406.63;5034741;28;20226;-69
2023/06/01 03:02:44;;;;;;;16.73;5.40;;;;;;;14.75;nan;-19090.31;5034635;28;20175;-69
2023/06/01 03:05:21;;;;;;;9.05;5.22;;;;;;;15.27;nan;-17492.31;5033791;28;20202;-69
2023/06/01 03:07:47;;;;;;;8.30;5.00;;;;;;;15.50;nan;-15242.72;5033687;28;20230;-69
2023/06/01 03:10:12;;;;;;;9.88;5.35;;;;;;;15.93;nan;-8796.59;5032831;28;20219;-70
2023/06/01 03:12:39;;;;;;;9.02;5.07;;;;;;;16.29;nan;-1357.97;5034221;28;20254;-70
2023/06/01 03:15:05;;;;;;;9.48;5.47;;;;;;;16.87;nan;6760.91;5033868;28;20560;-70
2023/06/01 03:17:31;;;;;;;9.05;4.60;;;;;;;17.01;nan;11642.72;5034047;28;20654;-68
2023/06/01 03:19:57;;;;;;;11.07;4.95;;;;;;;17.30;nan;18497.28;5032690;28;20187;-71
2023/06/01 03:22:23;;;;;;;7.25;4.55;;;;;;;17.78;nan;24400.84;5034140;28;20559;-72
2023/06/01 03:24:49;;;;;;;8.88;5.32;;;;;;;18.03;nan;34574.88;5033932;28;20206;-70
2023/06/01 03:27:19;;;;;;;8.75;4.97;;;;;;;18.51;nan;46564.50;5033978;28;20172;-70
2023/06/01 03:29:44;;;;;;;9.85;4.95;;;;;;;18.66;nan;50310.19;5034487;28;20171;-70
2023/06/01 03:32:10;;;;;;;8.10;4.47;;;;;;;19.60;nan;53403.53;5038840;28;20171;-68
2023/06/01 03:34:36;;;;;;;8.07;4.57;;;;;;;20.46;nan;57011.56;5033261;28;20203;-72
2023/06/01 03:37:04;;;;;;;7.28;4.88;;;;;;;21.30;nan;59210.16;5033442;28;20203;-70
2023/06/01 03:39:33;;;;;;;6.88;4.57;;;;;;;22.16;nan;60291.50;5033618;28;20174;-71
2023/06/01 03:41:58;;;;;;;8.23;4.25;;;;;;;22.49;nan;60937.28;5033919;28;20247;-71
2023/06/01 03:44:24;;;;;;;8.20;4.90;;;;;;;23.20;nan;61357.22;5033723;28;20638;-70
2023/06/01 03:46:50;;;;;;;9.15;4.05;;;;;;;24.11;nan;61709.34;5033501;28;20597;-71
2023/06/01 03:49:15;;;;;;;7.82;4.28;;;;;;;;;;5033450;28;20241;-70
2023/06/01 03:51:40;;;;;;;7.40;4.28;;;;;;;24.80;nan;61982.41;5033023;28;20180;-72
2023/06/01 03:54:06;;;;;;;6.90;4.20;;;;;;;25.02;nan;61991.72;5033069;28;20221;-71
2023/06/01 03:56:31;;;;;;;10.40;5.07;;;;;;;25.27;nan;62198.03;5033312;28;20194;-70
2023/06/01 03:58:58;;;;;;;7.90;4.45;;;;;;;25.68;nan;62246.25;5033554;28;20187;-70
2023/06/01 04:01:24;;;;;;;6.43;3.90;;;;;;;25.92;nan;62428.72;5033098;28;20306;-71
2023/06/01 04:03:50;;;;;;;7.95;4.68;;;;;;;26.15;nan;62428.22;5033199;28;20246;-71
2023/06/01 04:06:17;;;;;;;7.63;4.38;;;;;;;26.51;nan;62497.63;5032920;28;20690;-70
2023/06/01 04:08:50;;;;;;;6.30;3.80;;;;;;;26.90;nan;62512.28;5032875;28;20195;-69
2023/06/01 04:11:16;;;;;;;5.28;3.97;;;;;;;27.01;nan;62373.25;5032928;28;20271;-70
2023/06/01 04:13:43;;;;;;;8.55;3.97;;;;;;;27.29;nan;62572.63;5033397;28;20207;-63
2023/06/01 04:16:09;;;;;;;7.07;4.22;;;;;;;27.63;nan;62516.44;5032500;28;20175;-62
2023/06/01 04:18:35;;;;;;;6.60;4.15;;;;;;;27.67;nan;62628.69;5032112;28;20258;-62
2023/06/01 04:21:00;;;;;;;6.57;4.15;;;;;;;27.78;nan;62701.72;5032574;28;20340;-63
2023/06/01 04:23:25;;;;;;;8.52;4.25;;;;;;;27.90;nan;62780.56;5032576;28;20167;-60
2023/06/01 04:25:51;;;;;;;6.75;3.92;;;;;;;28.27;nan;62691.03;5032926;28;20261;-61
2023/06/01 04:28:17;;;;;;;6.60;4.30;;;;;;;28.15;nan;62729.84;5032541;28;20195;-61
2023/06/01 04:30:44;;;;;;;8.13;3.97;;;;;;;27.78;nan;62740.53;5032699;28;20214;-63
2023/06/01 04:33:10;;;;;;;5.20;3.83;;;;;;;27.79;nan;62660.81;5032562;28;20172;-61
2023/06/01 04:35:36;;;;;;;7.28;4.40;;;;;;;27.80;nan;62732.91;5032455;28;20202;-62
2023/06/01 04:38:02;;;;;;;6.57;4.13;;;;;;;27.58;nan;62607.88;5032263;28;20209;-61
2023/06/01 04:40:27;;;;;;;6.60;4.18;;;;;;;27.25;nan;62497.75;5032306;28;20198;-61
2023/06/01 04:42:56;;;;;;;8.40;4.15;;;;;;;27.33;nan;62590.31;5032257;28;20168;-62
2023/06/01 04:45:23;;;;;;;7.45;4.30;;;;;;;27.17;nan;62850.78;5032531;28;20184;-63
2023/06/01 04:47:49;;;;;;;6.28;3.92;;;;;;;21.63;nan;63599.00;5032294;28;20226;-62
2023/06/01 04:50:16;;;;;;;7.40;4.70;;;;;;;26.60;nan;62787.91;5032109;28;20183;-61
2023/06/01 04:52:42;;;;;;;7.95;4.43;;;;;;;26.20;nan;62454.91;5030596;28;20214;-61
2023/06/01 04:55:09;;;;;;;6.63;4.40;;;;;;;25.92;nan;62483.69;5031855;28;20163;-61
2023/06/01 04:57:35;;;;;;;6.43;4.53;;;;;;;22.95;nan;63886.19;5031011;28;20171;-63
2023/06/01 05:00:11;;;;;;;7.28;4.25;;;;;;;26.01;nan;62406.41;5031444;28;20601;-63
2023/06/01 05:02:37;;;;;;;6.57;4.40;;;;;;;25.98;nan;62361.66;5031386;28;20243;-60
2023/06/01 05:05:04;;;;;;;6.18;4.10;;;;;;;25.39;nan;62339.91;5031180;28;20556;-61
2023/06/01 05:07:29;;;;;;;6.93;4.05;;;;;;;;;;5031037;28;20317;-61
2023/06/01 05:09:54;;;;;;;7.03;4.50;;;;;;;24.42;nan;62180.72;5029378;28;20258;-62
2023/06/01 05:12:20;;;;;;;8.43;4.88;;;;;;;25.05;nan;62314.19;5031415;28;20630;-62
2023/06/01 05:14:53;;;;;;;6.38;4.10;;;;;;;24.97;nan;62305.63;5031193;28;20199;-62
2023/06/01 05:17:18;;;;;;;6.10;4.22;;;;;;;24.86;nan;62302.94;5031521;28;20321;-61
2023/06/01 05:19:44;;;;;;;8.75;4.10;;;;;;;24.91;nan;62460.31;5031188;28;20694;-61
2023/06/01 05:22:10;;;;;;;6.25;4.30;;;;;;;24.43;nan;62093.03;5031161;28;20171;-62
2023/06/01 05:24:35;;;;;;;6.88;4.28;;;;;;;25.23;nan;62281.84;5031498;28;20186;-61
2023/06/01 05:27:00;;;;;;;6.57;4.15;;;;;;;24.91;nan;62251.16;5031164;28;20554;-61
2023/06/01 05:29:26;;;;;;;5.97;3.97;;;;;;;25.18;nan;62261.03;5031303;28;20195;-61
2023/06/01 05:31:51;;;;;;;5.95;3.35;;;;;;;25.71;nan;62428.25;5030408;28;20206;-62
2023/06/01 05:34:17;;;;;;;6.30;4.03;;;;;;;25.46;nan;62305.47;5030050;28;20662;-62
2023/06/01 05:36:42;;;;;;;6.75;3.97;;;;;;;24.87;nan;62472.00;5031100;28;20179;-63
2023/06/01 05:39:07;;;;;;;6.75;3.95;;;;;;;24.16;nan;62025.75;5031026;28;20186;-62
2023/06/01 05:41:33;;;;;;;7.03;4.35;;;;;;;23.75;nan;62076.81;5031247;28;20237;-64
2023/06/01 05:43:58;;;;;;;12.73;4.47;;;;;;;23.33;nan;62039.41;5031255;28;20243;-63
2023/06/01 05:46:24;;;;;;;7.72;4.18;;;;;;;23.10;nan;62075.81;5031060;28;20631;-63
2023/06/01 05:48:50;;;;;;;12.90;4.60;;;;;;;23.09;nan;62121.59;5030995;28;20319;-64
2023/06/01 05:51:17;;;;;;;7.18;4.28;;;;;;;22.98;nan;61929.22;5029016;28;20182;-63
2023/06/01 05:53:42;;;;;;;7.45;4.70;;;;;;;23.12;nan;62005.66;5029743;28;20175;-61
2023/06/01 05:56:08;;;;;;;7.10;4.43;;;;;;;22.71;nan;61985.66;5030513;28;20522;-61
2023/06/01 05:58:33;;;;;;;5.88;4.32;;;;;;;22.80;nan;62055.81;5032061;28;20183;-61
2023/06/01 06:00:59;;;;;;;6.32;4.38;;;;;;;23.06;nan;62202.16;5034054;28;20671;-63
2023/06/01 06:03:24;;;;;;;5.43;3.63;;;;;;;22.89;nan;61953.44;5032829;28;20183;-61
2023/06/01 06:05:50;;;;;;;6.72;4.53;;;;;;;22.82;nan;61945.47;5034009;28;20207;-62
2023/06/01 06:08:15;;;;;;;6.53;3.95;;;;;;;23.01;nan;62052.53;5034868;28;20245;-61
2023/06/01 06:10:41;;;;;;;9.77;3.65;;;;;;;23.24;nan;62027.13;5035290;28;20183;-61
2023/06/01 06:13:06;;;;;;;6.60;4.18;;;;;;;23.06;nan;62084.28;5033359;28;20643;-60
2023/06/01 06:15:32;;;;;;;7.55;4.55;;;;;;;22.92;nan;62079.34;5034339;28;20185;-62
2023/06/01 06:17:57;;;;;;;6.60;4.18;;;;;;;23.09;nan;62051.78;5034766;28;20654;-61
2023/06/01 06:20:23;;;;;;;8.50;3.83;;;;;;;22.77;nan;61950.78;5033770;28;20218;-62
2023/06/01 06:22:52;;;;;;;6.35;4.00;;;;;;;22.39;nan;61808.63;5033242;28;20260;-61
2023/06/01 06:25:18;;;;;;;7.15;4.07;;;;;;;22.85;nan;62004.19;5034577;28;20274;-62
2023/06/01 06:27:43;;;;;;;7.63;4.38;;;;;;;23.10;nan;62034.09;5034273;28;20286;-62
2023/06/01 06:30:09;;;;;;;6.40;3.88;;;;;;;21.72;nan;61915.25;5033638;28;20179;-61
2023/06/01 06:32:34;;;;;;;5.53;3.88;;;;;;;23.38;nan;62104.53;5034541;28;20671;-61
2023/06/01 06:35:00;;;;;;;5.70;4.03;;;;;;;22.71;nan;61881.44;5034281;28;20254;-61
2023/06/01 06:37:26;;;;;;;7.35;4.60;;;;;;;22.71;nan;62050.78;5034251;28;20168;-61
2023/06/01 06:39:51;;;;;;;8.13;4.20;;;;;;;22.55;nan;62003.31;5034069;28;20536;-62
2023/06/01 06:42:16;;;;;;;5.97;3.90;;;;;;;22.71;nan;61923.13;5032999;28;20391;-62
2023/06/01 06:44:42;;;;;;;9.38;4.15;;;;;;;22.69;nan;62267.31;5032061;28;20210;-61
2023/06/01 06:47:07;;;;;;;7.60;3.90;;;;;;;23.09;nan;62014.72;5033681;28;20194;-62
2023/06/01 06:49:33;;;;;;;4.63;3.63;;;;;;;23.25;nan;62012.06;5033901;28;20187;-61
2023/06/01 06:51:58;;;;;;;6.18;4.07;;;;;;;23.66;nan;62092.09;5033795;28;20182;-61
2023/06/01 06:54:23;;;;;;;6.57;4.43;;;;;;;23.50;nan;62037.91;5033335;28;20168;-61
2023/06/01 06:56:49;;;;;;;5.13;3.83;;;;;;;23.81;nan;62090.91;5034242;28;20170;-62
2023/06/01 06:59:14;;;;;;;5.85;4.00;;;;;;;23.02;nan;62129.25;5033902;28;20171;-62
2023/06/01 07:01:40;;;;;;;6.55;4.18;;;;;;;22.86;nan;61968.28;5033542;28;20605;-62
2023/06/01 07:04:07;;;;;;;7.75;4.55;;;;;;;23.32;nan;62036.25;5033791;28;20586;-61
2023/06/01 07:06:33;;;;;;;6.00;4.10;;;;;;;22.92;nan;61911.97;5033734;28;20172;-61
2023/06/01 07:08:59;;;;;;;6.60;3.90;;;;;;;22.85;nan;61967.69;5033622;28;20210;-61
2023/06/01 07:11:26;;;;;;;6.60;3.65;;;;;;;22.66;nan;62209.19;5032767;28;20552;-63
2023/06/01 07:13:52;;;;;;;6.10;3.95;;;;;;;23.01;nan;61967.09;5033204;28;20219;-62
2023/06/01 07:16:17;;;;;;;6.32;4.20;;;;;;;23.15;nan;62021.53;5032273;28;20171;-61
2023/06/01 07:18:43;;;;;;;5.88;3.83;;;;;;;23.09;nan;62122.16;5033560;28;20179;-62
2023/06/01 07:21:08;;;;;;;6.07;4.10;;;;;;;22.91;nan;62130.31;5031672;28;20233;-61
2023/06/01 07:23:33;;;;;;;6.03;4.05;;;;;;;23.25;nan;62189.94;5033388;28;20175;-62
2023/06/01 07:25:59;;;;;;;6.28;4.30;;;;;;;23.26;nan;62060.13;5033331;28;20191;-59
2023/06/01 07:28:26;;;;;;;5.47;3.75;;;;;;;23.52;nan;62081.38;5033087;28;20300;-62
2023/06/01 07:30:54;;;;;;;5.55;3.88;;;;;;;23.65;nan;62120.22;5033276;28;20159;-62
2023/06/01 07:33:20;;;;;;;5.88;4.00;;;;;;;23.66;nan;62079.03;5033255;28;20184;-60
2023/06/01 07:35:46;;;;;;;5.10;3.60;;;;;;;24.08;nan;62175.91;5033241;28;20568;-63
2023/06/01 07:38:12;;;;;;;5.95;3.95;;;;;;;23.85;nan;62094.88;5033067;28;20634;-62
2023/06/01 07:40:37;;;;;;;7.95;3.78;;;;;;;24.21;nan;62141.13;5033184;28;20214;-62
2023/06/01 07:43:03;;;;;;;6.00;3.92;;;;;;;24.18;nan;62137.72;5032918;28;20176;-62
2023/06/01 07:45:28;;;;;;;5.70;3.97;;;;;;;24.44;nan;62179.81;5032238;28;20243;-63
2023/06/01 07:47:53;;;;;;;6.65;3.65;;;;;;;24.40;nan;62316.34;5032419;28;20195;-60
2023/06/01 07:50:19;;;;;;;5.90;3.97;;;;;;;23.47;nan;62292.16;5032651;28;20159;-62
2023/06/01 07:52:45;;;;;;;6.60;4.30;;;;;;;24.93;nan;62279.56;5032834;28;20182;-62
2023/06/01 07:55:11;;;;;;;6.65;4.15;;;;;;;25.07;nan;62350.47;5032763;28;20671;-62
2023/06/01 07:57:37;;;;;;;5.82;3.95;;;;;;;25.00;nan;62266.66;5032680;28;20183;-62
2023/06/01 08:00:11;;;;;;;6.65;3.90;;;;;;;24.98;nan;62463.66;5031241;28;20223;-63
2023/06/01 08:02:37;;;;;;;7.85;4.50;;;;;;;25.04;nan;62297.94;5032202;28;20167;-62
2023/06/01 08:05:03;;;;;;;6.60;4.35;;;;;;;25.05;nan;62254.03;5032495;28;20198;-62
2023/06/01 08:07:29;;;;;;;7.40;4.53;;;;;;;25.25;nan;62373.09;5032326;28;20655;-62
2023/06/01 08:09:55;;;;;;;7.22;4.15;;;;;;;24.70;nan;62211.47;5032245;28;20681;-61
2023/06/01 08:12:21;;;;;;;5.93;4.28;;;;;;;24.96;nan;62345.75;5032271;28;20171;-60
2023/06/01 08:14:46;;;;;;;5.28;4.05;;;;;;;25.08;nan;62406.53;5031928;28;20207;-62
2023/06/01 08:17:13;;;;;;;6.78;4.50;;;;;;;25.17;nan;62309.56;5032406;28;20615;-63
2023/06/01 08:19:38;;;;;;;8.00;4.28;;;;;;;25.05;nan;62366.50;5032277;28;20179;-62
2023/06/01 08:22:05;;;;;;;7.13;4.40;;;;;;;25.05;nan;62243.59;5031191;28;20274;-62
2023/06/01 08:24:32;;;;;;;7.25;4.43;;;;;;;25.50;nan;62354.53;5032607;28;20171;-62
2023/06/01 08:26:57;;;;;;;6.20;4.30;;;;;;;25.28;nan;62410.50;5032545;28;20711;-61
2023/06/01 08:29:23;;;;;;;9.85;4.78;;;;;;;25.84;nan;62398.63;5031960;28;20269;-61
2023/06/01 08:31:49;;;;;;;8.85;4.25;;;;;;;25.62;nan;62347.28;5032236;28;20183;-62
2023/06/01 08:34:14;;;;;;;6.95;4.80;;;;;;;25.69;nan;62404.47;5032254;28;20206;-62
2023/06/01 08:36:40;;;;;;;13.15;4.97;;;;;;;25.67;nan;62386.47;5032206;28;20183;-63
2023/06/01 08:39:22;;;;;;;8.40;4.28;;;;;;;25.64;nan;62477.28;5032144;28;20160;-61
2023/06/01 08:42:09;;;;;;;7.03;4.57;;;;;;;25.41;nan;62465.19;5031866;28;20195;-62
2023/06/01 08:44:39;;;;;;;7.53;4.60;;;;;;;24.96;nan;62312.34;5032102;28;20237;-61
2023/06/01 08:47:05;;;;;;;8.13;4.22;;;;;;;24.83;nan;62257.69;5032030;28;20175;-60
2023/06/01 08:49:32;;;;;;;5.45;3.85;;;;;;;24.75;nan;62241.28;5031836;28;20196;-62
2023/06/01 08:52:01;;;;;;;6.05;3.95;;;;;;;24.92;nan;62313.00;5032007;28;20682;-60
2023/06/01 08:54:30;;;;;;;5.63;4.10;;;;;;;24.70;nan;62204.22;5031417;28;20250;-62
2023/06/01 08:56:59;;;;;;;8.77;3.95;;;;;;;24.65;nan;62243.50;5031587;28;20171;-61
2023/06/01 08:59:25;;;;;;;6.97;4.00;;;;;;;25.04;nan;62324.09;5031531;28;20183;-61
2023/06/01 09:01:52;;;;;;;7.80;3.88;;;;;;;24.62;nan;62229.66;5031596;28;20289;-60
2023/06/01 09:04:18;;;;;;;6.63;4.07;;;;;;;24.79;nan;62264.16;5031807;28;20662;-62
2023/06/01 09:06:44;;;;;;;9.13;4.50;;;;;;;24.90;nan;62370.84;5030759;28;20249;-62
2023/06/01 09:09:12;;;;;;;7.97;4.07;;;;;;;25.02;nan;62399.66;5031145;28;20206;-62
2023/06/01 09:11:38;;;;;;;8.27;4.43;;;;;;;25.08;nan;62362.06;5003044;28;20308;-61
2023/06/01 09:14:24;;;;;;;6.47;3.88;;;;;;;25.14;nan;62321.84;4989799;28;20200;-61
2023/06/01 09:16:51;;;;;;;5.40;3.67;;;;;;;24.85;nan;62550.75;4991460;28;20550;-62
2023/06/01 09:19:20;;;;;;;5.50;3.88;;;;;;;24.82;nan;62274.84;4991975;28;20173;-62
2023/06/01 09:21:59;;;;;;;4.25;3.30;;;;;;;24.65;nan;62280.09;4991960;28;20176;-61
2023/06/01 09:24:25;;;;;;;4.95;3.42;;;;;;;24.75;nan;62180.59;4992406;28;20175;-62
2023/06/01 09:26:57;;;;;;;5.03;3.25;;;;;;;25.09;nan;62321.38;4992339;28;20169;-61
2023/06/01 09:29:22;;;;;;;4.60;3.33;;;;;;;25.51;nan;62337.34;4991747;28;20211;-62
2023/06/01 09:31:48;;;;;;;5.50;3.40;;;;;;;25.68;nan;62390.22;4985553;28;20197;-60
2023/06/01 09:34:19;;;;;;;6.47;3.50;;;;;;;25.39;nan;62462.91;4991572;28;20219;-62
2023/06/01 09:36:52;;;;;;;4.90;3.35;;;;;;;25.47;nan;62447.94;4991587;28;20564;-62
2023/06/01 09:39:20;;;;;;;5.55;3.35;;;;;;;25.02;nan;62415.94;4992334;28;20660;-61
2023/06/01 09:41:52;;;;;;;5.72;3.45;;;;;;;25.04;nan;62290.09;4991929;28;20268;-61
2023/06/01 09:44:27;;;;;;;7.03;3.65;;;;;;;25.23;nan;62387.06;4991580;28;20385;-62
2023/06/01 09:47:04;;;;;;;4.85;3.25;;;;;;;25.37;nan;62332.41;4992370;28;20196;-61
2023/06/01 09:49:39;;;;;;;6.82;3.38;;;;;;;25.55;nan;62432.97;4992200;28;20212;-60
2023/06/01 09:52:04;;;;;;;4.53;2.90;;;;;;;25.46;nan;62378.75;4992285;28;20164;-63
2023/06/01 09:54:34;;;;;;;5.07;3.13;;;;;;;25.37;nan;62344.91;4992023;28;20173;-62
2023/06/01 09:57:00;;;;;;;4.60;3.20;;;;;;;25.59;nan;62642.28;4991750;28;20177;-61
2023/06/01 09:59:28;;;;;;;4.22;2.72;;;;;;;25.52;nan;62339.03;4991989;28;20227;-62
2023/06/01 10:01:55;;;;;;;3.90;2.78;;;;;;;25.70;nan;62607.78;4991992;28;20229;-62
2023/06/01 10:04:26;;;;;;;4.07;2.90;;;;;;;26.02;nan;62484.09;4992007;28;20227;-63
2023/06/01 10:06:54;;;;;;;2.92;2.30;;;;;;;25.52;nan;62550.50;4992022;28;20177;-60
2023/06/01 10:09:21;;;;;;;4.43;3.08;;;;;;;25.72;nan;62407.88;4991635;28;20201;-62
2023/06/01 10:11:48;;;;;;;3.65;2.75;;;;;;;25.90;nan;62352.50;4991928;28;20176;-62
2023/06/01 10:14:16;;;;;;;4.15;2.60;;;;;;;25.81;nan;62449.59;4991622;28;20215;-61
2023/06/01 10:16:43;;;;;;;3.20;2.70;;;;;;;25.42;nan;62361.09;4991752;28;20177;-60
2023/06/01 10:19:10;;;;;;;3.88;2.83;;;;;;;25.81;nan;62384.69;4991589;28;20543;-60
2023/06/01 10:21:36;;;;;;;3.83;2.85;;;;;;;25.65;nan;62507.81;4991573;28;20276;-61
2023/06/01 10:24:05;;;;;;;5.13;2.95;;;;;;;24.83;nan;62414.56;4991473;28;20181;-62
2023/06/01 10:26:37;;;;;;;4.07;2.72;;;;;;;25.81;nan;62399.84;4991647;28;20200;-62
2023/06/01 10:29:03;;;;;;;4.68;2.90;;;;;;;25.63;nan;62379.28;4991808;28;20208;-61
2023/06/01 10:31:35;;;;;;;4.25;2.65;;;;;;;25.92;nan;62328.63;4991697;28;20510;-61
2023/06/01 10:34:01;;;;;;;5.05;3.13;;;;;;;26.50;nan;62535.25;4991587;28;20201;-62
2023/06/01 10:36:51;;;;;;;5.65;3.63;;;;;;;26.54;nan;62571.28;4991484;28;20267;-63
2023/06/01 10:39:26;;;;;;;4.07;3.08;;;;;;;26.65;nan;62505.78;4991312;28;20200;-61
2023/06/01 10:41:52;;;;;;;5.82;3.00;;;;;;;26.29;nan;62687.38;4990960;28;20259;-60
2023/06/01 10:44:39;;;;;;;5.03;2.90;;;;;;;26.54;nan;62592.84;4992078;28;20181;-60
2023/06/01 10:47:11;;;;;;;3.88;2.80;;;;;;;26.57;nan;62519.66;4994554;28;20595;-61
2023/06/01 10:49:49;;;;;;;4.13;2.70;;;;;;;26.06;nan;62480.22;4994581;28;20263;-62
2023/06/01 10:52:27;;;;;;;4.35;2.75;;;;;;;26.16;nan;62565.59;4994288;28;20172;-61
2023/06/01 10:54:53;;;;;;;5.00;3.00;;;;;;;;;;4994605;28;20165;-61
2023/06/01 10:57:25;;;;;;;4.85;3.22;;;;;;;26.19;nan;62561.16;4994135;28;20234;-60
2023/06/01 11:00:09;;;;;;;5.03;2.92;;;;;;;26.32;nan;62578.69;4994310;28;21805;-60
2023/06/01 11:03:00;;;;;;;4.82;3.10;;;;;;;26.07;nan;62481.94;4994732;28;20208;-61
2023/06/01 11:05:36;;;;;;;6.70;4.30;;;;;;;26.01;nan;62438.41;4994295;28;20264;-61
2023/06/01 11:08:01;;;;;;;5.13;3.63;;;;;;;26.09;nan;62399.81;4994276;28;20273;-61
2023/06/01 11:10:46;;;;;;;4.85;3.03;;;;;;;26.35;nan;62539.63;4994803;28;20176;-60
2023/06/01 11:13:17;;;;;;;3.72;2.80;;;;;;;26.35;nan;62718.44;4994166;28;20161;-62
2023/06/01 11:16:14;;;;;;;4.65;2.85;;;;;;;26.79;nan;62610.41;4994080;28;20671;-61
2023/06/01 11:18:42;;;;;;;4.63;3.33;;;;;;;26.67;nan;62599.84;4994481;28;20160;-61
2023/06/01 11:21:17;;;;;;;5.05;2.92;;;;;;;26.32;nan;62730.13;4992781;28;20592;-59
2023/06/01 11:23:44;;;;;;;4.38;3.05;;;;;;;26.02;nan;62428.50;4994061;28;20168;-61
2023/06/01 11:26:14;;;;;;;3.65;2.70;;;;;;;26.03;nan;62409.28;4994236;28;20223;-61
2023/06/01 11:28:40;;;;;;;5.68;3.03;;;;;;;26.46;nan;62505.03;4993773;28;21058;-61
2023/06/01 11:31:10;;;;;;;4.90;2.83;;;;;;;26.43;nan;62609.06;4994407;28;20240;-61
2023/06/01 11:33:39;;;;;;;5.25;2.67;;;;;;;26.52;nan;62603.06;4993927;28;20181;-60
2023/06/01 11:36:05;;;;;;;4.45;2.80;;;;;;;26.52;nan;62437.91;4994043;28;20177;-61
2023/06/01 11:38:39;;;;;;;4.97;2.97;;;;;;;26.42;nan;62730.53;4993544;28;20180;-62
2023/06/01 11:41:06;;;;;;;5.40;2.63;;;;;;;26.43;nan;62542.97;4992889;28;20196;-61
2023/06/01 11:43:32;;;;;;;4.28;2.90;;;;;;;26.44;nan;62491.69;4993714;28;20172;-61
2023/06/01 11:46:05;;;;;;;4.18;2.90;;;;;;;26.40;nan;62469.34;4993598;28;20191;-62
2023/06/01 11:48:31;;;;;;;4.30;2.75;;;;;;;26.31;nan;62477.97;4993681;28;20255;-63
2023/06/01 11:50:59;;;;;;;4.05;2.70;;;;;;;26.75;nan;62564.44;4993782;28;20177;-59
2023/06/01 11:53:24;;;;;;;9.98;3.20;;;;;;;26.55;nan;62609.13;4993036;28;20168;-62